Time;durP1;ratioP1;P1;durP2;ratioP2;P2;SDS_P1;SDS_P2;PMS_P1;PMS_P2;Temp;Humidity;BMP_temperature;BMP_pressure;BME280_temperature;BME280_humidity;BME280_pressure;Samples;Min_cycle;Max_cycle;Signal;HPM_P1;HPM_P2
2021/07/12 00:01:11;;;;;;;29.83;12.17;;;;;;;-145.18;100.00;60484.78;5058091;28;20457;-71
2021/07/12 00:03:36;;;;;;;32.53;12.53;;;;;;;-145.18;100.00;60484.78;5058355;28;20296;-71
2021/07/12 00:06:02;;;;;;;29.27;11.57;;;;;;;-145.18;100.00;60484.78;5059154;28;20032;-71
2021/07/12 00:08:28;;;;;;;33.60;11.43;;;;;;;-145.18;100.00;60484.78;5052769;28;20128;-71
2021/07/12 00:10:53;;;;;;;38.63;12.47;;;;;;;-145.18;100.00;60484.78;5060093;28;20467;-71
2021/07/12 00:13:19;;;;;;;29.70;11.53;;;;;;;-145.18;100.00;60484.78;5050951;28;20035;-71
2021/07/12 00:15:44;;;;;;;30.43;12.30;;;;;;;-145.18;100.00;60484.78;5060602;28;20059;-71
2021/07/12 00:18:10;;;;;;;34.77;12.87;;;;;;;-145.18;100.00;60484.78;5055210;28;20054;-71
2021/07/12 00:20:36;;;;;;;35.07;13.03;;;;;;;-145.18;100.00;60484.78;5059980;28;20036;-71
2021/07/12 00:23:01;;;;;;;31.17;12.37;;;;;;;-145.18;100.00;60484.78;5060265;28;20024;-71
2021/07/12 00:25:29;;;;;;;31.07;13.30;;;;;;;-145.18;100.00;60484.78;5060053;28;20031;-71
2021/07/12 00:27:55;;;;;;;37.97;13.50;;;;;;;-145.18;100.00;60484.78;5059611;28;20100;-71
2021/07/12 00:30:22;;;;;;;33.90;12.90;;;;;;;-145.18;100.00;60484.78;5059642;28;20119;-71
2021/07/12 00:32:48;;;;;;;39.90;14.20;;;;;;;-145.18;100.00;60484.78;5054916;28;20064;-71
2021/07/12 00:35:15;;;;;;;44.67;13.90;;;;;;;-145.18;100.00;60484.78;5060322;28;20615;-71
2021/07/12 00:37:41;;;;;;;36.73;13.80;;;;;;;-145.18;100.00;60484.78;5058990;28;20036;-71
2021/07/12 00:40:10;;;;;;;38.17;12.53;;;;;;;-145.18;100.00;60484.78;5059070;28;20171;-71
2021/07/12 00:42:35;;;;;;;31.47;12.43;;;;;;;-145.18;100.00;60484.78;5058989;28;20103;-72
2021/07/12 00:45:02;;;;;;;31.47;11.63;;;;;;;-145.18;100.00;60484.78;5059401;28;20618;-71
2021/07/12 00:47:27;;;;;;;26.03;10.87;;;;;;;-145.18;100.00;60484.78;5059471;28;20028;-71
2021/07/12 00:49:53;;;;;;;28.53;11.23;;;;;;;-145.18;100.00;60484.78;5059333;28;20063;-71
2021/07/12 00:52:18;;;;;;;29.87;11.40;;;;;;;-145.18;100.00;60484.78;5056670;28;20028;-71
2021/07/12 00:54:44;;;;;;;33.03;11.17;;;;;;;-145.18;100.00;60484.78;5059656;28;20028;-72
2021/07/12 00:57:10;;;;;;;34.87;11.87;;;;;;;-145.18;100.00;60484.78;5059104;28;20300;-72
2021/07/12 00:59:36;;;;;;;33.00;11.50;;;;;;;-145.18;100.00;60484.78;5059013;28;20020;-71
2021/07/12 01:02:05;;;;;;;37.80;12.20;;;;;;;-145.18;100.00;60484.78;5083833;22;20071;-70
2021/07/12 01:04:32;;;;;;;37.77;12.20;;;;;;;-145.18;100.00;60484.78;5067168;28;20032;-67
2021/07/12 01:06:58;;;;;;;28.37;11.13;;;;;;;-145.18;100.00;60484.78;5079166;28;20038;-67
2021/07/12 01:09:23;;;;;;;26.80;10.97;;;;;;;-145.18;100.00;60484.78;5080139;28;20424;-67
2021/07/12 01:12:32;;;;;;;39.67;10.90;;;;;;;-145.18;100.00;60484.78;5074702;28;20043;-67
2021/07/12 01:15:18;;;;;;;32.70;11.77;;;;;;;-145.18;100.00;60484.78;5065492;28;20040;-68
2021/07/12 01:18:31;;;;;;;41.97;12.10;;;;;;;-145.18;100.00;60484.78;5068211;28;20158;-68
2021/07/12 01:21:38;;;;;;;39.77;13.27;;;;;;;-145.18;100.00;60484.78;5037273;28;20517;-68
2021/07/12 01:24:41;;;;;;;36.07;13.47;;;;;;;-145.18;100.00;60484.78;5006078;28;20112;-68
2021/07/12 01:27:47;;;;;;;48.45;14.75;;;;;;;-145.18;100.00;60484.78;5023560;28;20044;-68
2021/07/12 01:30:35;;;;;;;47.27;14.77;;;;;;;-145.18;100.00;60484.78;5019443;28;20091;-68
2021/07/12 01:33:46;;;;;;;58.50;16.10;;;;;;;-145.18;100.00;60484.78;5016043;28;20289;-68
2021/07/12 01:36:20;;;;;;;59.13;16.27;;;;;;;-145.18;100.00;60484.78;5002072;28;20043;-67
2021/07/12 01:39:30;;;;;;;54.57;16.17;;;;;;;-145.18;100.00;60484.78;5003978;28;20033;-67
2021/07/12 01:42:03;;;;;;;81.70;16.03;;;;;;;-145.18;100.00;60484.78;4988876;28;20588;-67
2021/07/12 01:45:11;;;;;;;93.13;17.03;;;;;;;-145.18;100.00;60484.78;5015760;28;20642;-67
2021/07/12 01:47:45;;;;;;;82.60;15.50;;;;;;;-145.18;100.00;60484.78;4972474;28;20576;-67
2021/07/12 01:50:51;;;;;;;111.70;17.53;;;;;;;-145.18;100.00;60484.78;5015470;28;20017;-67
2021/07/12 01:53:34;;;;;;;122.43;16.70;;;;;;;-145.18;100.00;60484.78;4995750;28;20333;-67
2021/07/12 01:56:17;;;;;;;124.57;16.53;;;;;;;-145.18;100.00;60484.78;5021364;28;20025;-67
2021/07/12 01:59:02;;;;;;;88.73;15.97;;;;;;;-145.18;100.00;60484.78;5067493;28;20032;-68
2021/07/12 02:01:30;;;;;;;63.10;14.77;;;;;;;-145.18;100.00;60484.78;5062483;28;20030;-67
2021/07/12 02:03:58;;;;;;;49.23;13.37;;;;;;;-145.18;100.00;60484.78;5073772;28;20051;-67
2021/07/12 02:06:24;;;;;;;52.73;13.47;;;;;;;-145.18;100.00;60484.78;5075020;28;20121;-67
2021/07/12 02:08:53;;;;;;;61.40;13.27;;;;;;;-145.18;100.00;60484.78;5070122;28;20601;-67
2021/07/12 02:11:19;;;;;;;52.20;13.47;;;;;;;-145.18;100.00;60484.78;5078242;28;20118;-67
2021/07/12 02:13:48;;;;;;;55.77;14.33;;;;;;;-145.18;100.00;60484.78;5079233;28;20373;-67
2021/07/12 02:16:15;;;;;;;72.40;14.83;;;;;;;-145.18;100.00;60484.78;5079930;28;20289;-67
2021/07/12 02:18:42;;;;;;;57.27;14.67;;;;;;;-145.18;100.00;60484.78;5081097;28;20507;-67
2021/07/12 02:21:10;;;;;;;56.63;14.83;;;;;;;-145.18;100.00;60484.78;5083015;28;20185;-67
2021/07/12 02:23:38;;;;;;;51.23;13.83;;;;;;;-145.18;100.00;60484.78;5083814;28;20404;-67
2021/07/12 02:26:05;;;;;;;44.97;13.47;;;;;;;-145.18;100.00;60484.78;5081503;28;20059;-67
2021/07/12 02:28:32;;;;;;;57.57;14.20;;;;;;;-145.18;100.00;60484.78;5078263;28;20093;-67
2021/07/12 02:30:57;;;;;;;75.03;14.60;;;;;;;-145.18;100.00;60484.78;5082249;28;20544;-67
2021/07/12 02:33:24;;;;;;;76.30;14.53;;;;;;;-145.18;100.00;60484.78;5076838;28;20105;-67
2021/07/12 02:35:51;;;;;;;88.73;15.03;;;;;;;-145.18;100.00;60484.78;5082281;28;20120;-67
2021/07/12 02:38:17;;;;;;;64.03;13.93;;;;;;;-145.18;100.00;60484.78;5082441;28;20080;-67
2021/07/12 02:40:45;;;;;;;71.70;13.33;;;;;;;-145.18;100.00;60484.78;5082976;28;20042;-67
2021/07/12 02:43:12;;;;;;;54.37;14.00;;;;;;;-145.18;100.00;60484.78;5082108;28;20056;-67
2021/07/12 02:45:38;;;;;;;68.50;14.13;;;;;;;-145.18;100.00;60484.78;5082243;28;20031;-67
2021/07/12 02:48:04;;;;;;;54.67;13.03;;;;;;;-145.18;100.00;60484.78;5082016;28;20023;-67
2021/07/12 02:50:31;;;;;;;38.40;12.80;;;;;;;-145.18;100.00;60484.78;5082376;28;20016;-67
2021/07/12 02:53:23;;;;;;;44.90;13.80;;;;;;;-145.18;100.00;60484.78;5081972;28;20294;-67
2021/07/12 02:55:49;;;;;;;49.53;13.13;;;;;;;-145.18;100.00;60484.78;5074803;28;20285;-67
2021/07/12 02:58:15;;;;;;;69.73;14.23;;;;;;;-145.18;100.00;60484.78;5071509;28;20103;-67
2021/07/12 03:00:40;;;;;;;37.73;12.63;;;;;;;-145.18;100.00;60484.78;5081933;28;20020;-67
2021/07/12 03:03:06;;;;;;;47.60;13.67;;;;;;;-145.18;100.00;60484.78;5081028;28;20127;-67
2021/07/12 03:05:32;;;;;;;64.90;13.53;;;;;;;-145.18;100.00;60484.78;5082754;28;20039;-67
2021/07/12 03:08:25;;;;;;;70.57;13.53;;;;;;;-145.18;100.00;60484.78;5081967;28;20027;-67
2021/07/12 03:10:55;;;;;;;61.97;13.27;;;;;;;-145.18;100.00;60484.78;5075718;28;20115;-67
2021/07/12 03:13:28;;;;;;;66.57;13.73;;;;;;;-145.18;100.00;60484.78;5082149;28;20093;-67
2021/07/12 03:15:55;;;;;;;47.57;13.67;;;;;;;-145.18;100.00;60484.78;5081801;28;20107;-67
2021/07/12 03:18:26;;;;;;;39.40;13.37;;;;;;;-145.18;100.00;60484.78;5074887;28;20023;-67
2021/07/12 03:20:54;;;;;;;46.43;13.23;;;;;;;-145.18;100.00;60484.78;5077664;28;20075;-67
2021/07/12 03:23:20;;;;;;;37.17;13.40;;;;;;;-145.18;100.00;60484.78;5076188;28;20032;-67
2021/07/12 03:25:52;;;;;;;50.30;12.63;;;;;;;-145.18;100.00;60484.78;5089194;28;20065;-67
2021/07/12 03:28:18;;;;;;;45.72;13.50;;;;;;;-145.18;100.00;60484.78;5077295;28;20032;-70
2021/07/12 03:30:45;;;;;;;41.17;13.87;;;;;;;-145.18;100.00;60484.78;5078842;28;20491;-68
2021/07/12 03:33:13;;;;;;;41.03;13.60;;;;;;;-145.18;100.00;60484.78;5077792;28;20219;-67
2021/07/12 03:35:44;;;;;;;46.33;13.90;;;;;;;-145.18;100.00;60484.78;5081700;28;20429;-67
2021/07/12 03:38:15;;;;;;;52.30;12.67;;;;;;;-145.18;100.00;60484.78;5078990;28;20260;-67
2021/07/12 03:40:42;;;;;;;40.72;12.55;;;;;;;-145.18;100.00;60484.78;5080742;28;20313;-67
2021/07/12 03:43:13;;;;;;;41.37;11.53;;;;;;;-145.18;100.00;60484.78;5078201;28;20519;-67
2021/07/12 03:45:39;;;;;;;38.53;11.97;;;;;;;-145.18;100.00;60484.78;5081510;28;20106;-70
2021/07/12 03:48:09;;;;;;;50.47;12.30;;;;;;;-145.18;100.00;60484.78;5067948;28;20043;-69
2021/07/12 03:50:35;;;;;;;52.40;13.40;;;;;;;-145.18;100.00;60484.78;5080862;28;20024;-69
2021/07/12 03:53:02;;;;;;;41.13;12.80;;;;;;;-145.18;100.00;60484.78;5068138;28;20035;-69
2021/07/12 03:55:29;;;;;;;66.40;13.23;;;;;;;-145.18;100.00;60484.78;5080764;28;20522;-69
2021/07/12 03:57:56;;;;;;;79.67;13.97;;;;;;;-145.18;100.00;60484.78;5080278;28;20028;-69
2021/07/12 04:00:24;;;;;;;78.23;14.33;;;;;;;-145.18;100.00;60484.78;5080836;28;20448;-69
2021/07/12 04:02:50;;;;;;;61.47;14.07;;;;;;;-145.18;100.00;60484.78;5080050;28;20101;-69
2021/07/12 04:05:19;;;;;;;85.13;14.67;;;;;;;-145.18;100.00;60484.78;5080994;28;20026;-69
2021/07/12 04:07:45;;;;;;;92.93;15.20;;;;;;;-145.18;100.00;60484.78;5070505;28;20024;-69
2021/07/12 04:10:13;;;;;;;72.30;14.43;;;;;;;-145.18;100.00;60484.78;5081051;28;20028;-69
2021/07/12 04:12:42;;;;;;;50.87;13.80;;;;;;;-145.18;100.00;60484.78;5079501;28;20186;-69
2021/07/12 04:15:09;;;;;;;77.00;13.80;;;;;;;-145.18;100.00;60484.78;5080381;28;20466;-69
2021/07/12 04:17:35;;;;;;;56.67;13.57;;;;;;;-145.18;100.00;60484.78;5075824;28;20024;-69
2021/07/12 04:20:03;;;;;;;98.70;14.17;;;;;;;-145.18;100.00;60484.78;5080227;28;20036;-69
2021/07/12 04:22:28;;;;;;;47.57;12.77;;;;;;;-145.18;100.00;60484.78;5080586;28;20333;-69
2021/07/12 04:24:54;;;;;;;49.03;12.53;;;;;;;-145.18;100.00;60484.78;5079942;28;20435;-69
2021/07/12 04:27:20;;;;;;;46.77;12.40;;;;;;;-145.18;100.00;60484.78;5079888;28;20105;-69
2021/07/12 04:29:45;;;;;;;51.10;13.40;;;;;;;-145.18;100.00;60484.78;5072336;28;20456;-69
2021/07/12 04:32:11;;;;;;;69.00;13.87;;;;;;;-145.18;100.00;60484.78;5077403;28;20112;-69
2021/07/12 04:34:37;;;;;;;65.47;13.03;;;;;;;-145.18;100.00;60484.78;5079994;28;20245;-69
2021/07/12 04:37:03;;;;;;;41.63;12.83;;;;;;;-145.18;100.00;60484.78;5069781;28;20025;-69
2021/07/12 04:39:29;;;;;;;39.83;12.63;;;;;;;-145.18;100.00;60484.78;5078527;28;20438;-69
2021/07/12 04:41:54;;;;;;;35.07;11.70;;;;;;;-145.18;100.00;60484.78;5071379;28;20218;-69
2021/07/12 04:44:21;;;;;;;36.33;12.70;;;;;;;-145.18;100.00;60484.78;5078552;28;20219;-69
2021/07/12 04:46:47;;;;;;;42.33;12.43;;;;;;;-145.18;100.00;60484.78;5075225;28;20032;-69
2021/07/12 04:49:13;;;;;;;37.30;12.90;;;;;;;-145.18;100.00;60484.78;5078867;28;20028;-69
2021/07/12 04:51:38;;;;;;;34.20;11.87;;;;;;;-145.18;100.00;60484.78;5076338;28;20416;-69
2021/07/12 04:54:04;;;;;;;49.13;12.70;;;;;;;-145.18;100.00;60484.78;5080146;28;20407;-69
2021/07/12 04:56:30;;;;;;;50.50;12.87;;;;;;;-145.18;100.00;60484.78;5077213;28;20047;-69
2021/07/12 04:58:56;;;;;;;36.13;12.33;;;;;;;-145.18;100.00;60484.78;5079957;28;20370;-69
2021/07/12 05:01:23;;;;;;;31.27;12.23;;;;;;;-145.18;100.00;60484.78;5078055;28;20168;-69
2021/07/12 05:03:49;;;;;;;33.63;12.60;;;;;;;-145.18;100.00;60484.78;5079834;28;20055;-69
2021/07/12 05:06:14;;;;;;;33.30;12.40;;;;;;;-145.18;100.00;60484.78;5078723;28;20036;-69
2021/07/12 05:08:40;;;;;;;34.17;12.17;;;;;;;-145.18;100.00;60484.78;5080012;28;20651;-69
2021/07/12 05:11:05;;;;;;;31.30;12.43;;;;;;;-145.18;100.00;60484.78;5078369;28;20139;-69
2021/07/12 05:13:32;;;;;;;41.80;12.93;;;;;;;-145.18;100.00;60484.78;5068309;28;20541;-69
2021/07/12 05:15:57;;;;;;;25.63;11.93;;;;;;;-145.18;100.00;60484.78;5079675;28;20031;-69
2021/07/12 05:18:24;;;;;;;29.43;12.73;;;;;;;-145.18;100.00;60484.78;5066984;28;20384;-69
2021/07/12 05:20:51;;;;;;;31.77;11.87;;;;;;;-145.18;100.00;60484.78;5079692;28;20603;-69
2021/07/12 05:23:17;;;;;;;35.20;12.80;;;;;;;-145.18;100.00;60484.78;5067680;28;20268;-69
2021/07/12 05:25:42;;;;;;;29.33;13.47;;;;;;;-145.18;100.00;60484.78;5079147;28;20381;-69
2021/07/12 05:28:08;;;;;;;31.17;13.10;;;;;;;-145.18;100.00;60484.78;5068696;28;20092;-69
2021/07/12 05:30:37;;;;;;;25.47;11.43;;;;;;;-145.18;100.00;60484.78;5076275;28;20051;-70
2021/07/12 05:33:03;;;;;;;34.30;12.03;;;;;;;-145.18;100.00;60484.78;5069584;28;20028;-67
2021/07/12 05:35:29;;;;;;;26.93;11.77;;;;;;;-145.18;100.00;60484.78;5079192;28;20112;-67
2021/07/12 05:37:54;;;;;;;27.43;12.47;;;;;;;-145.18;100.00;60484.78;5070327;28;20296;-67
2021/07/12 05:40:20;;;;;;;29.03;12.07;;;;;;;-145.18;100.00;60484.78;5079271;28;20028;-67
2021/07/12 05:42:45;;;;;;;27.63;11.70;;;;;;;-145.18;100.00;60484.78;5079077;28;20156;-67
2021/07/12 05:45:11;;;;;;;27.00;12.63;;;;;;;-145.18;100.00;60484.78;5079360;28;20080;-67
2021/07/12 05:47:36;;;;;;;24.73;11.77;;;;;;;-145.18;100.00;60484.78;5073254;28;20368;-67
2021/07/12 05:50:07;;;;;;;26.52;12.48;;;;;;;-145.18;100.00;60484.78;5078124;28;20094;-67
2021/07/12 05:52:32;;;;;;;27.60;12.50;;;;;;;-145.18;100.00;60484.78;5078068;28;20028;-67
2021/07/12 05:54:58;;;;;;;28.15;13.02;;;;;;;-145.18;100.00;60484.78;5079129;28;20202;-67
2021/07/12 05:57:24;;;;;;;23.40;11.40;;;;;;;-145.18;100.00;60484.78;5066960;28;20016;-67
2021/07/12 05:59:50;;;;;;;21.58;10.82;;;;;;;-145.18;100.00;60484.78;5078090;28;20603;-67
2021/07/12 06:02:16;;;;;;;25.10;13.10;;;;;;;-145.18;100.00;60484.78;5068208;28;20052;-67
2021/07/12 06:04:41;;;;;;;27.70;13.35;;;;;;;-145.18;100.00;60484.78;5078039;28;20308;-67
2021/07/12 06:07:07;;;;;;;26.40;12.95;;;;;;;-145.18;100.00;60484.78;5069203;28;20036;-67
2021/07/12 06:09:32;;;;;;;28.23;12.88;;;;;;;-145.18;100.00;60484.78;5077316;28;20031;-67
2021/07/12 06:11:58;;;;;;;29.60;13.35;;;;;;;-145.18;100.00;60484.78;5069967;28;20158;-67
2021/07/12 06:14:23;;;;;;;32.13;15.15;;;;;;;-145.18;100.00;60484.78;5077434;28;20035;-67
2021/07/12 06:16:49;;;;;;;26.80;12.88;;;;;;;-145.18;100.00;60484.78;5071340;28;20039;-67
2021/07/12 06:19:14;;;;;;;32.83;14.30;;;;;;;-145.18;100.00;60484.78;5077397;28;20031;-67
2021/07/12 06:21:40;;;;;;;32.88;14.60;;;;;;;-145.18;100.00;60484.78;5072811;28;20036;-67
2021/07/12 06:24:05;;;;;;;34.13;14.50;;;;;;;-145.18;100.00;60484.78;5076121;28;20116;-67
2021/07/12 06:26:31;;;;;;;32.90;14.40;;;;;;;-145.18;100.00;60484.78;5073990;28;20103;-67
2021/07/12 06:28:57;;;;;;;42.28;16.05;;;;;;;-145.18;100.00;60484.78;5075718;28;20402;-67
2021/07/12 06:31:22;;;;;;;34.65;14.23;;;;;;;-145.18;100.00;60484.78;5075037;28;20039;-67
2021/07/12 06:33:47;;;;;;;30.27;14.35;;;;;;;-145.18;100.00;60484.78;5075586;28;20020;-67
2021/07/12 06:36:13;;;;;;;35.95;14.27;;;;;;;-145.18;100.00;60484.78;5076315;28;20504;-68
2021/07/12 06:38:38;;;;;;;31.60;14.07;;;;;;;-145.18;100.00;60484.78;5075864;28;20310;-67
2021/07/12 06:41:04;;;;;;;32.25;14.75;;;;;;;-145.18;100.00;60484.78;5078638;28;20383;-67
2021/07/12 06:43:30;;;;;;;36.30;14.80;;;;;;;-145.18;100.00;60484.78;5079009;28;20097;-68
2021/07/12 06:45:56;;;;;;;35.03;14.35;;;;;;;-145.18;100.00;60484.78;5078844;28;20439;-68
2021/07/12 06:48:21;;;;;;;34.95;14.35;;;;;;;-145.18;100.00;60484.78;5078631;28;20035;-67
2021/07/12 06:50:47;;;;;;;34.40;14.18;;;;;;;-145.18;100.00;60484.78;5078563;28;20051;-67
2021/07/12 06:53:12;;;;;;;31.92;14.23;;;;;;;-145.18;100.00;60484.78;5077797;28;20109;-67
2021/07/12 06:55:38;;;;;;;34.78;14.32;;;;;;;-145.18;100.00;60484.78;5078707;28;20262;-69
2021/07/12 06:58:04;;;;;;;28.55;13.60;;;;;;;-145.18;100.00;60484.78;5064992;28;20173;-69
2021/07/12 07:00:32;;;;;;;37.40;15.18;;;;;;;-145.18;100.00;60484.78;5080143;28;20101;-69
2021/07/12 07:02:59;;;;;;;30.90;14.40;;;;;;;-145.18;100.00;60484.78;5069401;28;20547;-69
2021/07/12 07:05:26;;;;;;;30.40;13.77;;;;;;;-145.18;100.00;60484.78;5082601;28;20170;-69
2021/07/12 07:08:07;;;;;;;31.55;13.85;;;;;;;-145.18;100.00;60484.78;5070969;28;20040;-72
2021/07/12 07:10:33;;;;;;;30.85;14.00;;;;;;;-145.18;100.00;60484.78;5082149;28;20426;-69
2021/07/12 07:12:58;;;;;;;29.23;13.98;;;;;;;-145.18;100.00;60484.78;5071862;28;20042;-69
2021/07/12 07:15:24;;;;;;;33.75;14.23;;;;;;;-145.18;100.00;60484.78;5081764;28;20121;-69
2021/07/12 07:17:49;;;;;;;33.92;15.35;;;;;;;-145.18;100.00;60484.78;5073044;28;20532;-69
2021/07/12 07:20:15;;;;;;;31.23;13.63;;;;;;;-145.18;100.00;60484.78;5082131;28;20020;-69
2021/07/12 07:22:41;;;;;;;34.92;15.27;;;;;;;-145.18;100.00;60484.78;5078585;28;20028;-69
2021/07/12 07:25:07;;;;;;;33.50;15.32;;;;;;;-145.18;100.00;60484.78;5082322;28;20157;-69
2021/07/12 07:27:33;;;;;;;32.10;14.75;;;;;;;-145.18;100.00;60484.78;5074491;28;20035;-69
2021/07/12 07:29:59;;;;;;;31.45;14.73;;;;;;;-145.18;100.00;60484.78;5081537;28;20028;-69
2021/07/12 07:32:25;;;;;;;31.63;15.35;;;;;;;-145.18;100.00;60484.78;5075476;28;20589;-69
2021/07/12 07:34:50;;;;;;;28.38;13.25;;;;;;;-145.18;100.00;60484.78;5081724;28;20271;-69
2021/07/12 07:37:16;;;;;;;28.83;13.40;;;;;;;-145.18;100.00;60484.78;5076486;28;20028;-69
2021/07/12 07:39:41;;;;;;;27.95;12.90;;;;;;;-145.18;100.00;60484.78;5081665;28;20020;-69
2021/07/12 07:42:07;;;;;;;28.73;13.80;;;;;;;-145.18;100.00;60484.78;5080964;28;20036;-69
2021/07/12 07:44:33;;;;;;;31.25;13.68;;;;;;;-145.18;100.00;60484.78;5081736;28;20024;-69
2021/07/12 07:46:59;;;;;;;29.50;13.27;;;;;;;-145.18;100.00;60484.78;5078284;28;20115;-69
2021/07/12 07:49:24;;;;;;;27.60;13.65;;;;;;;-145.18;100.00;60484.78;5081145;28;20026;-69
2021/07/12 07:51:50;;;;;;;28.30;13.68;;;;;;;-145.18;100.00;60484.78;5079988;28;20039;-69
2021/07/12 07:54:16;;;;;;;29.25;13.38;;;;;;;-145.18;100.00;60484.78;5081364;28;20257;-69
2021/07/12 07:56:42;;;;;;;25.52;12.45;;;;;;;-145.18;100.00;60484.78;5074839;28;20294;-69
2021/07/12 07:59:08;;;;;;;24.50;12.30;;;;;;;-145.18;100.00;60484.78;5073831;28;20679;-69
2021/07/12 08:01:34;;;;;;;27.20;13.32;;;;;;;-145.18;100.00;60484.78;5075302;28;20272;-69
2021/07/12 08:04:00;;;;;;;26.98;12.98;;;;;;;-145.18;100.00;60484.78;5073983;28;20557;-68
2021/07/12 08:06:25;;;;;;;26.42;12.93;;;;;;;-145.18;100.00;60484.78;5076674;28;20272;-69
2021/07/12 08:08:51;;;;;;;27.63;12.43;;;;;;;-145.18;100.00;60484.78;5073771;28;20291;-69
2021/07/12 08:11:17;;;;;;;25.45;12.00;;;;;;;-145.18;100.00;60484.78;5077727;28;20047;-69
2021/07/12 08:13:42;;;;;;;24.65;12.05;;;;;;;-145.18;100.00;60484.78;5073616;28;20020;-69
2021/07/12 08:16:08;;;;;;;22.80;11.27;;;;;;;-145.18;100.00;60484.78;5078982;28;20034;-69
2021/07/12 08:18:35;;;;;;;23.10;11.82;;;;;;;-145.18;100.00;60484.78;5073617;28;20027;-69
2021/07/12 08:21:00;;;;;;;21.98;10.65;;;;;;;-145.18;100.00;60484.78;5079931;28;20020;-70
2021/07/12 08:23:26;;;;;;;21.58;10.90;;;;;;;-145.18;100.00;60484.78;5074088;28;20030;-69
2021/07/12 08:25:52;;;;;;;21.42;10.35;;;;;;;-145.18;100.00;60484.78;5080966;28;20561;-69
2021/07/12 08:28:17;;;;;;;19.73;10.23;;;;;;;-145.18;100.00;60484.78;5074087;28;20411;-70
2021/07/12 08:30:43;;;;;;;20.90;10.52;;;;;;;-145.18;100.00;60484.78;5080749;28;20085;-70
2021/07/12 08:33:09;;;;;;;17.98;9.70;;;;;;;-145.18;100.00;60484.78;5074866;28;20197;-70
2021/07/12 08:35:34;;;;;;;18.45;9.55;;;;;;;-145.18;100.00;60484.78;5080472;28;20055;-70
2021/07/12 08:38:00;;;;;;;19.48;10.18;;;;;;;-145.18;100.00;60484.78;5076059;28;20636;-71
2021/07/12 08:40:28;;;;;;;17.98;9.52;;;;;;;-145.18;100.00;60484.78;5080483;28;20505;-70
2021/07/12 08:42:55;;;;;;;17.25;9.35;;;;;;;-145.18;100.00;60484.78;5079975;28;20032;-70
2021/07/12 08:45:22;;;;;;;17.48;9.27;;;;;;;-145.18;100.00;60484.78;5080433;28;20541;-70
2021/07/12 08:47:48;;;;;;;15.63;8.73;;;;;;;-145.18;100.00;60484.78;5078171;28;20496;-71
2021/07/12 08:50:14;;;;;;;15.48;8.25;;;;;;;-145.18;100.00;60484.78;5080466;28;20023;-70
2021/07/12 08:52:44;;;;;;;14.55;8.52;;;;;;;-145.18;100.00;60484.78;5078831;28;20558;-70
2021/07/12 08:55:10;;;;;;;17.23;9.07;;;;;;;-145.18;100.00;60484.78;5080222;28;20023;-70
2021/07/12 08:57:36;;;;;;;14.98;7.65;;;;;;;-145.18;100.00;60484.78;5079534;28;20504;-71
2021/07/12 09:00:05;;;;;;;13.80;8.20;;;;;;;-145.18;100.00;60484.78;5080116;28;20009;-70
2021/07/12 09:02:32;;;;;;;14.52;7.72;;;;;;;-145.18;100.00;60484.78;5066205;28;20167;-70
2021/07/12 09:04:58;;;;;;;14.70;7.55;;;;;;;-145.18;100.00;60484.78;5066711;28;20500;-70
2021/07/12 09:07:28;;;;;;;14.63;7.97;;;;;;;-145.18;100.00;60484.78;5067420;28;20031;-70
2021/07/12 09:10:12;;;;;;;15.45;8.27;;;;;;;-145.18;100.00;60484.78;5080155;28;20117;-70
2021/07/12 09:12:50;;;;;;;15.88;8.60;;;;;;;-145.18;100.00;60484.78;5069065;28;20666;-70
2021/07/12 09:15:20;;;;;;;15.45;7.85;;;;;;;-145.18;100.00;60484.78;5076683;28;20024;-70
2021/07/12 09:17:48;;;;;;;13.90;7.47;;;;;;;-145.18;100.00;60484.78;5070476;28;20032;-70
2021/07/12 09:20:31;;;;;;;13.32;6.72;;;;;;;-145.18;100.00;60484.78;5079687;28;20043;-70
2021/07/12 09:22:58;;;;;;;15.48;8.02;;;;;;;-145.18;100.00;60484.78;5071414;28;20234;-70
2021/07/12 09:25:30;;;;;;;16.00;8.95;;;;;;;-145.18;100.00;60484.78;5079799;28;20024;-70
2021/07/12 09:27:56;;;;;;;15.85;7.35;;;;;;;-145.18;100.00;60484.78;5072573;28;20495;-70
2021/07/12 09:30:22;;;;;;;15.88;7.70;;;;;;;-145.18;100.00;60484.78;5079516;28;20051;-70
2021/07/12 09:32:52;;;;;;;16.08;7.93;;;;;;;-145.18;100.00;60484.78;5073500;28;20032;-69
2021/07/12 09:35:20;;;;;;;13.48;7.90;;;;;;;-145.18;100.00;60484.78;5079528;28;20023;-69
2021/07/12 09:37:57;;;;;;;15.07;7.88;;;;;;;-145.18;100.00;60484.78;5074378;28;20101;-69
2021/07/12 09:40:23;;;;;;;13.32;7.38;;;;;;;-145.18;100.00;60484.78;5079526;28;20266;-69
2021/07/12 09:42:51;;;;;;;12.57;6.40;;;;;;;-145.18;100.00;60484.78;5078949;28;20157;-68
2021/07/12 09:45:19;;;;;;;12.13;6.70;;;;;;;-145.18;100.00;60484.78;5079309;28;20020;-69
2021/07/12 09:47:48;;;;;;;10.77;5.72;;;;;;;-145.18;100.00;60484.78;5076711;28;20027;-69
2021/07/12 09:50:22;;;;;;;11.95;6.53;;;;;;;-145.18;100.00;60484.78;5079195;28;20106;-68
2021/07/12 09:53:03;;;;;;;14.32;7.00;;;;;;;-145.18;100.00;60484.78;5077715;28;20036;-68
2021/07/12 09:55:41;;;;;;;12.48;7.13;;;;;;;-145.18;100.00;60484.78;5079276;28;20376;-69
2021/07/12 09:58:27;;;;;;;14.65;7.55;;;;;;;-145.18;100.00;60484.78;5065427;28;20375;-68
2021/07/12 10:01:04;;;;;;;13.57;7.53;;;;;;;-145.18;100.00;60484.78;5079180;28;20089;-68
2021/07/12 10:03:33;;;;;;;14.77;7.95;;;;;;;-145.18;100.00;60484.78;5067817;28;20047;-68
2021/07/12 10:06:00;;;;;;;12.82;7.07;;;;;;;-145.18;100.00;60484.78;5078551;28;20281;-68
2021/07/12 10:08:25;;;;;;;13.10;7.20;;;;;;;-145.18;100.00;60484.78;5068333;28;20103;-67
2021/07/12 10:10:51;;;;;;;14.30;7.78;;;;;;;-145.18;100.00;60484.78;5078728;28;20111;-68
2021/07/12 10:13:17;;;;;;;12.55;6.82;;;;;;;-145.18;100.00;60484.78;5067794;28;20039;-68
2021/07/12 10:15:43;;;;;;;9.68;5.80;;;;;;;-145.18;100.00;60484.78;5078901;28;20101;-68
2021/07/12 10:18:09;;;;;;;11.10;6.05;;;;;;;-145.18;100.00;60484.78;5068524;28;20118;-68
2021/07/12 10:20:36;;;;;;;9.68;6.10;;;;;;;-145.18;100.00;60484.78;5080244;28;20131;-67
2021/07/12 10:23:04;;;;;;;11.18;6.10;;;;;;;-145.18;100.00;60484.78;5069596;28;20030;-67
2021/07/12 10:25:31;;;;;;;9.82;5.70;;;;;;;-145.18;100.00;60484.78;5078822;28;20024;-67
2021/07/12 10:28:07;;;;;;;10.13;5.88;;;;;;;-145.18;100.00;60484.78;5070548;28;20180;-67
2021/07/12 10:30:48;;;;;;;10.75;6.50;;;;;;;-145.18;100.00;60484.78;5078516;28;20031;-67
2021/07/12 10:33:15;;;;;;;8.68;5.13;;;;;;;-145.18;100.00;60484.78;5071294;28;20077;-67
2021/07/12 10:35:47;;;;;;;9.80;5.30;;;;;;;-145.18;100.00;60484.78;5080538;28;20251;-67
2021/07/12 10:38:16;;;;;;;9.02;4.95;;;;;;;-145.18;100.00;60484.78;5076025;28;20054;-67
2021/07/12 10:40:53;;;;;;;10.73;5.97;;;;;;;-145.18;100.00;60484.78;5082616;28;20039;-67
2021/07/12 10:44:03;;;;;;;9.82;5.57;;;;;;;-145.18;100.00;60484.78;5082472;28;20472;-67
2021/07/12 10:46:39;;;;;;;11.15;5.25;;;;;;;-145.18;100.00;60484.78;5030416;28;20037;-66
2021/07/12 10:49:25;;;;;;;8.20;5.15;;;;;;;-145.18;100.00;60484.78;5019325;28;20173;-67
2021/07/12 10:51:51;;;;;;;8.38;4.80;;;;;;;-145.18;100.00;60484.78;5024172;28;20643;-67
2021/07/12 10:54:16;;;;;;;7.53;4.18;;;;;;;-145.18;100.00;60484.78;5039099;28;20253;-67
2021/07/12 10:57:00;;;;;;;9.00;3.83;;;;;;;-145.18;100.00;60484.78;5026521;28;20030;-67
2021/07/12 10:59:34;;;;;;;6.90;3.80;;;;;;;-145.18;100.00;60484.78;5014787;28;20560;-67
2021/07/12 11:02:02;;;;;;;7.03;3.83;;;;;;;-145.18;100.00;60484.78;5010108;28;20230;-67
2021/07/12 11:05:01;;;;;;;7.10;3.42;;;;;;;-145.18;100.00;60484.78;5032563;28;20599;-66
2021/07/12 11:07:46;;;;;;;6.72;3.72;;;;;;;-145.18;100.00;60484.78;5011167;28;20165;-66